createdAt,value
2017-11-20T00:02:13.033Z,3.10
2017-11-20T00:04:40.565Z,4.77
2017-11-20T00:07:08.843Z,4.40
2017-11-20T00:09:36.399Z,3.60
2017-11-20T00:12:03.928Z,3.70
2017-11-20T00:14:31.446Z,3.63
2017-11-20T00:16:59.001Z,3.70
2017-11-20T00:19:26.512Z,4.00
2017-11-20T00:21:54.031Z,3.63
2017-11-20T00:24:21.579Z,3.97
2017-11-20T00:26:49.088Z,3.13
2017-11-20T00:29:16.612Z,3.20
2017-11-20T00:31:44.158Z,4.10
2017-11-20T00:34:11.683Z,3.37
2017-11-20T00:36:39.197Z,6.07
2017-11-20T00:39:07.523Z,3.40
2017-11-20T00:41:35.034Z,4.43
2017-11-20T00:44:03.355Z,5.17
2017-11-20T00:46:30.871Z,3.83
2017-11-20T00:48:58.390Z,4.00
2017-11-20T00:51:25.946Z,3.93
2017-11-20T00:53:53.481Z,3.67
2017-11-20T00:56:20.999Z,4.10
2017-11-20T00:58:49.320Z,3.80
2017-11-20T01:01:16.856Z,3.50
2017-11-20T01:03:45.146Z,4.27
2017-11-20T01:06:12.690Z,4.90
2017-11-20T01:08:40.213Z,4.80
2017-11-20T01:11:08.495Z,3.77
2017-11-20T01:13:36.034Z,3.60
2017-11-20T01:16:03.582Z,3.60
2017-11-20T01:18:31.096Z,3.37
2017-11-20T01:20:58.651Z,3.90
2017-11-20T01:23:26.218Z,4.23
2017-11-20T01:25:53.752Z,4.70
2017-11-20T01:28:21.294Z,4.93
2017-11-20T01:30:48.812Z,3.77
2017-11-20T01:33:16.366Z,4.50
2017-11-20T01:35:44.649Z,5.77
2017-11-20T01:38:12.158Z,4.00
2017-11-20T01:40:39.691Z,5.60
2017-11-20T01:43:07.228Z,6.00
2017-11-20T01:45:34.742Z,4.97
2017-11-20T01:48:02.291Z,5.30
2017-11-20T01:50:29.807Z,4.50
2017-11-20T01:52:57.339Z,5.17
2017-11-20T01:55:24.877Z,4.80
2017-11-20T01:57:52.392Z,5.20
2017-11-20T02:00:19.902Z,4.17
2017-11-20T02:02:59.150Z,4.37
2017-11-20T02:05:26.659Z,3.90
2017-11-20T02:07:54.175Z,4.10
2017-11-20T02:10:21.713Z,3.60
2017-11-20T02:12:49.242Z,4.93
2017-11-20T02:15:16.757Z,3.83
2017-11-20T02:17:44.310Z,4.30
2017-11-20T02:20:11.838Z,3.80
2017-11-20T02:22:39.374Z,4.30
2017-11-20T02:25:06.903Z,4.13
2017-11-20T02:27:35.189Z,4.10
2017-11-20T02:30:03.512Z,3.10
2017-11-20T02:32:31.036Z,3.70
2017-11-20T02:34:58.571Z,3.50
2017-11-20T02:37:26.143Z,4.17
2017-11-20T02:39:54.428Z,4.00
2017-11-20T02:42:22.774Z,3.70
2017-11-20T02:44:50.272Z,4.20
2017-11-20T02:47:17.807Z,3.50
2017-11-20T02:49:45.367Z,4.60
2017-11-20T02:52:12.879Z,4.83
2017-11-20T02:54:40.483Z,4.60
2017-11-20T02:57:08.026Z,4.30
2017-11-20T02:59:36.309Z,4.80
2017-11-20T03:02:03.846Z,4.87
2017-11-20T03:04:31.387Z,3.87
2017-11-20T03:06:58.905Z,4.40
2017-11-20T03:09:26.456Z,4.40
2017-11-20T03:11:53.995Z,5.00
2017-11-20T03:14:21.562Z,5.40
2017-11-20T03:16:49.121Z,4.00
2017-11-20T03:19:17.410Z,4.80
2017-11-20T03:21:44.925Z,4.73
2017-11-20T03:24:12.486Z,5.30
2017-11-20T03:26:40.004Z,6.07
2017-11-20T03:29:08.298Z,5.83
2017-11-20T03:31:36.630Z,5.43
2017-11-20T03:34:04.160Z,6.27
2017-11-20T03:36:31.669Z,5.50
2017-11-20T03:38:59.214Z,5.67
2017-11-20T03:41:26.977Z,4.57
2017-11-20T03:43:54.495Z,5.70
2017-11-20T03:46:22.028Z,4.67
2017-11-20T03:48:50.305Z,4.23
2017-11-20T03:51:17.831Z,5.40
2017-11-20T03:53:45.369Z,6.60
2017-11-20T03:56:12.873Z,5.97
2017-11-20T03:58:40.405Z,5.70
2017-11-20T04:01:07.918Z,5.33
2017-11-20T04:03:35.431Z,5.97
2017-11-20T04:06:02.968Z,5.07
2017-11-20T04:08:30.478Z,5.70
2017-11-20T04:10:58.790Z,5.23
2017-11-20T04:13:26.315Z,6.20
2017-11-20T04:15:53.824Z,5.07
2017-11-20T04:18:21.361Z,6.47
2017-11-20T04:20:48.887Z,5.40
2017-11-20T04:23:16.403Z,5.63
2017-11-20T04:25:43.948Z,5.13
2017-11-20T04:28:11.464Z,6.20
2017-11-20T04:30:38.982Z,6.23
2017-11-20T04:33:06.526Z,6.20
2017-11-20T04:35:34.040Z,6.53
2017-11-20T04:38:01.563Z,7.07
2017-11-20T04:40:29.122Z,5.73
2017-11-20T04:42:56.635Z,6.10
2017-11-20T04:45:24.228Z,6.37
2017-11-20T04:47:51.758Z,6.47
2017-11-20T04:50:20.076Z,6.30
2017-11-20T04:52:47.608Z,6.07
2017-11-20T04:55:15.124Z,6.43
2017-11-20T04:57:42.646Z,5.63
2017-11-20T05:00:10.185Z,6.90
2017-11-20T05:02:38.478Z,6.23
2017-11-20T05:05:06.019Z,5.90
2017-11-20T05:07:34.299Z,5.70
2017-11-20T05:10:02.588Z,6.67
2017-11-20T05:12:30.137Z,6.40
2017-11-20T05:14:57.675Z,6.13
2017-11-20T05:17:25.979Z,6.90
2017-11-20T05:19:54.304Z,6.00
2017-11-20T05:22:21.837Z,6.23
2017-11-20T05:24:49.377Z,5.60
2017-11-20T05:27:16.929Z,6.77
2017-11-20T05:29:45.217Z,7.27
2017-11-20T05:32:12.763Z,6.40
2017-11-20T05:34:41.089Z,6.80
2017-11-20T05:37:09.384Z,7.80
2017-11-20T05:39:36.937Z,6.40
2017-11-20T05:42:04.457Z,7.43
2017-11-20T05:44:32.008Z,6.80
2017-11-20T05:46:59.537Z,6.80
2017-11-20T05:49:27.085Z,6.53
2017-11-20T05:51:54.617Z,7.00
2017-11-20T05:54:22.143Z,6.43
2017-11-20T05:56:50.427Z,5.60
2017-11-20T05:59:17.962Z,5.30
2017-11-20T06:01:46.262Z,6.30
2017-11-20T06:04:14.579Z,5.90
2017-11-20T06:06:42.104Z,5.20
2017-11-20T06:09:09.672Z,4.57
2017-11-20T06:11:37.228Z,6.00
2017-11-20T06:14:04.759Z,6.50
2017-11-20T06:16:33.059Z,5.60
2017-11-20T06:19:00.610Z,5.80
2017-11-20T06:21:28.147Z,5.20
2017-11-20T06:23:55.686Z,5.63
2017-11-20T06:26:23.195Z,6.10
2017-11-20T06:28:50.705Z,5.37
2017-11-20T06:31:18.258Z,8.70
2017-11-20T06:33:45.777Z,6.47
2017-11-20T06:36:13.298Z,5.60
2017-11-20T06:38:40.843Z,6.20
2017-11-20T06:41:08.353Z,6.07
2017-11-20T06:43:35.866Z,5.70
2017-11-20T06:46:03.434Z,6.80
2017-11-20T06:48:30.961Z,5.80
2017-11-20T06:50:58.476Z,5.23
2017-11-20T06:53:26.791Z,6.70
2017-11-20T06:55:54.298Z,6.47
2017-11-20T06:58:21.843Z,5.70
2017-11-20T07:00:49.342Z,5.70
2017-11-20T07:03:17.625Z,5.73
2017-11-20T07:05:45.172Z,5.43
2017-11-20T07:08:12.686Z,5.37
2017-11-20T07:10:40.214Z,7.20
2017-11-20T07:13:07.760Z,6.63
2017-11-20T07:15:35.277Z,4.73
2017-11-20T07:18:03.567Z,6.50
2017-11-20T07:20:37.870Z,5.43
2017-11-20T07:23:05.378Z,6.97
2017-11-20T07:25:44.678Z,5.43
2017-11-20T07:28:12.191Z,6.33
2017-11-20T07:30:51.534Z,6.43
2017-11-20T07:33:19.048Z,5.37
2017-11-20T07:35:59.279Z,5.93
2017-11-20T07:38:38.516Z,5.33
2017-11-20T07:41:06.064Z,6.60
2017-11-20T07:43:33.573Z,6.30
2017-11-20T07:46:01.308Z,5.90
2017-11-20T07:48:28.858Z,6.80
2017-11-20T07:50:56.395Z,5.93
2017-11-20T07:53:24.720Z,5.63
2017-11-20T07:55:52.246Z,6.70
2017-11-20T07:58:19.755Z,5.50
2017-11-20T08:00:47.315Z,6.37
2017-11-20T08:03:15.618Z,5.50
2017-11-20T08:05:43.161Z,6.63
2017-11-20T08:08:10.698Z,6.20
2017-11-20T08:10:38.225Z,5.80
2017-11-20T08:13:05.749Z,6.07
2017-11-20T08:15:33.305Z,5.70
2017-11-20T08:18:00.827Z,6.00
2017-11-20T08:20:28.346Z,6.30
2017-11-20T08:22:55.887Z,6.30
2017-11-20T08:25:23.400Z,6.77
2017-11-20T08:27:50.923Z,6.07
2017-11-20T08:30:18.466Z,5.63
2017-11-20T08:32:45.979Z,7.60
2017-11-20T08:35:13.525Z,5.13
2017-11-20T08:37:41.037Z,6.80
2017-11-20T08:40:08.550Z,6.13
2017-11-20T08:42:36.093Z,6.90
2017-11-20T08:45:03.603Z,6.13
2017-11-20T08:47:31.979Z,7.03
2017-11-20T08:49:59.527Z,6.33
2017-11-20T08:52:27.034Z,6.43
2017-11-20T08:54:54.679Z,4.90
2017-11-20T08:57:22.236Z,5.90
2017-11-20T08:59:49.751Z,6.57
2017-11-20T09:02:17.302Z,5.97
2017-11-20T09:04:44.825Z,5.53
2017-11-20T09:07:12.344Z,6.77
2017-11-20T09:09:39.890Z,6.00
2017-11-20T09:12:08.212Z,6.73
2017-11-20T09:14:35.741Z,5.90
2017-11-20T09:17:03.286Z,6.47
2017-11-20T09:19:30.802Z,6.63
2017-11-20T09:21:58.314Z,5.70
2017-11-20T09:24:25.855Z,6.40
2017-11-20T09:26:53.375Z,5.50
2017-11-20T09:29:20.917Z,5.57
2017-11-20T09:31:49.200Z,5.93
2017-11-20T09:34:17.482Z,5.90
2017-11-20T09:36:45.799Z,5.60
2017-11-20T09:39:13.314Z,7.60
2017-11-20T09:41:40.822Z,6.03
2017-11-20T09:44:08.367Z,7.60
2017-11-20T09:46:35.899Z,7.00
2017-11-20T09:49:03.451Z,7.30
2017-11-20T09:51:31.734Z,6.50
2017-11-20T09:53:59.262Z,6.50
2017-11-20T09:56:26.794Z,7.10
2017-11-20T09:58:54.314Z,7.63
2017-11-20T10:01:21.843Z,6.37
2017-11-20T10:03:50.153Z,5.77
2017-11-20T10:06:17.692Z,6.53
2017-11-20T10:08:45.235Z,5.93
2017-11-20T10:11:12.783Z,7.27
2017-11-20T10:13:40.323Z,5.97
2017-11-20T10:16:07.862Z,5.03
2017-11-20T10:18:35.386Z,6.23
2017-11-20T10:21:02.899Z,5.70
2017-11-20T10:23:30.446Z,5.70
2017-11-20T10:25:57.972Z,6.33
2017-11-20T10:28:25.475Z,6.57
2017-11-20T10:30:53.017Z,6.27
2017-11-20T10:33:20.538Z,5.50
2017-11-20T10:35:48.053Z,6.17
2017-11-20T10:38:15.594Z,6.00
2017-11-20T10:40:43.124Z,5.70
2017-11-20T10:43:10.643Z,7.00
2017-11-20T10:45:38.174Z,6.60
2017-11-20T10:48:05.676Z,6.20
2017-11-20T10:50:33.188Z,6.50
2017-11-20T10:53:00.738Z,6.70
2017-11-20T10:55:29.023Z,6.23
2017-11-20T10:57:56.534Z,6.67
2017-11-20T11:00:24.085Z,5.80
2017-11-20T11:02:51.630Z,6.00
2017-11-20T11:05:19.491Z,6.27
2017-11-20T11:07:47.039Z,7.77
2017-11-20T11:10:14.561Z,6.90
2017-11-20T11:12:42.106Z,5.20
2017-11-20T11:15:09.614Z,6.93
2017-11-20T11:17:37.128Z,5.57
2017-11-20T11:20:04.673Z,4.77
2017-11-20T11:22:32.188Z,5.50
2017-11-20T11:25:00.977Z,5.40
2017-11-20T11:27:28.539Z,5.27
2017-11-20T11:29:56.046Z,4.43
2017-11-20T11:32:23.562Z,5.17
2017-11-20T11:34:51.106Z,5.37
2017-11-20T11:37:19.384Z,5.63
2017-11-20T11:39:47.683Z,5.63
2017-11-20T11:42:15.199Z,6.60
2017-11-20T11:44:42.716Z,5.43
2017-11-20T11:47:10.274Z,5.30
2017-11-20T11:49:37.797Z,5.90
2017-11-20T11:52:05.328Z,5.90
2017-11-20T11:54:32.871Z,5.50
2017-11-20T11:57:00.376Z,5.13
2017-11-20T11:59:27.907Z,5.50
2017-11-20T12:01:55.451Z,4.80
2017-11-20T12:04:22.962Z,4.90
2017-11-20T12:06:50.470Z,4.50
2017-11-20T12:09:18.021Z,4.47
2017-11-20T12:11:45.531Z,4.17
2017-11-20T12:14:13.823Z,3.70
2017-11-20T12:16:41.368Z,4.90
2017-11-20T12:19:09.654Z,2.40
2017-11-20T12:21:37.930Z,3.20
2017-11-20T12:24:06.257Z,3.00
2017-11-20T12:26:33.802Z,2.67
2017-11-20T12:29:01.337Z,3.00
2017-11-20T12:31:28.879Z,2.87
2017-11-20T12:33:56.391Z,2.57
2017-11-20T12:36:23.914Z,2.27
2017-11-20T12:38:52.231Z,3.43
2017-11-20T12:41:19.742Z,2.83
2017-11-20T12:43:47.252Z,2.03
2017-11-20T12:46:14.785Z,3.10
2017-11-20T12:48:42.305Z,3.47
2017-11-20T12:51:09.828Z,2.40
2017-11-20T12:53:37.362Z,4.40
2017-11-20T12:56:04.871Z,3.57
2017-11-20T12:58:32.414Z,3.87
2017-11-20T13:00:59.927Z,3.90
2017-11-20T13:03:28.207Z,3.60
2017-11-20T13:05:55.754Z,3.83
2017-11-20T13:08:23.267Z,4.23
2017-11-20T13:10:50.822Z,3.57
2017-11-20T13:13:19.133Z,4.73
2017-11-20T13:15:46.726Z,4.60
2017-11-20T13:18:14.235Z,4.53
2017-11-20T13:20:41.782Z,3.50
2017-11-20T13:23:09.332Z,4.67
2017-11-20T13:25:36.891Z,5.57
2017-11-20T13:28:04.406Z,3.77
2017-11-20T13:30:32.682Z,4.60
2017-11-20T13:33:00.986Z,4.17
2017-11-20T13:35:28.503Z,5.17
2017-11-20T13:37:56.046Z,4.73
2017-11-20T13:40:23.547Z,3.70
2017-11-20T13:42:51.827Z,5.00
2017-11-20T13:45:20.130Z,5.80
2017-11-20T13:47:47.655Z,6.07
2017-11-20T13:50:15.926Z,4.70
2017-11-20T13:52:45.112Z,4.40
2017-11-20T13:55:12.626Z,5.20
2017-11-20T13:57:40.178Z,5.50
2017-11-20T14:00:07.739Z,4.87
2017-11-20T14:02:35.250Z,5.70
2017-11-20T14:05:02.791Z,6.10
2017-11-20T14:07:30.356Z,5.70
2017-11-20T14:09:57.885Z,6.20
2017-11-20T14:12:25.395Z,5.53
2017-11-20T14:14:52.946Z,5.87
2017-11-20T14:17:20.454Z,5.70
2017-11-20T14:19:47.995Z,7.00
2017-11-20T14:22:15.544Z,5.80
2017-11-20T14:24:43.830Z,5.33
2017-11-20T14:27:12.118Z,5.67
2017-11-20T14:29:39.677Z,6.57
2017-11-20T14:32:07.197Z,5.80
2017-11-20T14:34:34.710Z,5.23
2017-11-20T14:37:02.265Z,5.60
2017-11-20T14:39:29.776Z,5.40
2017-11-20T14:41:57.310Z,4.90
2017-11-20T14:44:24.863Z,4.80
2017-11-20T14:46:54.262Z,5.37
2017-11-20T14:49:21.772Z,5.27
2017-11-20T14:52:06.743Z,5.30
2017-11-20T14:54:35.786Z,5.33
2017-11-20T14:57:03.301Z,5.67
2017-11-20T14:59:30.859Z,5.23
2017-11-20T15:01:58.369Z,4.83
2017-11-20T15:04:32.246Z,5.27
2017-11-20T15:06:59.781Z,8.13
2017-11-20T15:09:27.303Z,6.37
2017-11-20T15:11:54.851Z,5.90
2017-11-20T15:14:22.360Z,5.00
2017-11-20T15:16:49.875Z,5.17
2017-11-20T15:19:17.404Z,4.83
2017-11-20T15:21:45.682Z,4.03
2017-11-20T15:24:13.960Z,5.07
2017-11-20T15:26:41.567Z,4.77
2017-11-20T15:29:09.159Z,5.90
2017-11-20T15:31:36.689Z,5.70
2017-11-20T15:34:04.272Z,4.37
2017-11-20T15:36:31.789Z,4.63
2017-11-20T15:38:59.343Z,4.60
2017-11-20T15:44:01.695Z,4.10
2017-11-20T15:46:30.006Z,6.37
2017-11-20T15:48:57.521Z,4.50
2017-11-20T15:51:25.026Z,5.03
2017-11-20T15:53:52.571Z,4.87
2017-11-20T15:56:20.094Z,4.27
2017-11-20T15:58:47.606Z,4.87
2017-11-20T16:01:15.159Z,5.00
2017-11-20T16:03:42.699Z,3.87
2017-11-20T16:06:11.186Z,4.40
2017-11-20T16:08:38.739Z,5.47
2017-11-20T16:11:07.014Z,4.43
2017-11-20T16:13:35.340Z,4.20
2017-11-20T16:16:03.735Z,3.67
2017-11-20T16:18:31.236Z,5.33
2017-11-20T16:20:59.560Z,12.00
2017-11-20T16:23:27.078Z,4.30
2017-11-20T16:25:54.597Z,4.80
2017-11-20T16:28:22.903Z,4.87
2017-11-20T16:30:51.189Z,4.80
2017-11-20T16:33:18.708Z,4.80
2017-11-20T16:35:46.255Z,5.27
2017-11-20T16:38:13.767Z,6.53
2017-11-20T16:40:42.048Z,5.10
2017-11-20T16:43:10.359Z,7.00
2017-11-20T16:45:37.877Z,8.57
2017-11-20T16:48:06.150Z,6.70
2017-11-20T16:50:34.459Z,6.87
2017-11-20T16:53:01.994Z,8.00
2017-11-20T16:55:29.545Z,11.07
2017-11-20T17:01:02.486Z,9.10
2017-11-20T17:03:32.727Z,6.20
2017-11-20T17:06:00.283Z,6.80
2017-11-20T17:08:27.846Z,5.87
2017-11-20T17:10:55.382Z,7.37
2017-11-20T17:13:22.903Z,8.70
2017-11-20T17:15:50.460Z,8.30
2017-11-20T17:18:18.002Z,7.00
2017-11-20T17:20:45.551Z,7.10
2017-11-20T17:23:13.093Z,7.33
2017-11-20T17:25:40.619Z,6.37
2017-11-20T17:28:08.944Z,6.83
2017-11-20T17:30:36.462Z,8.00
2017-11-20T17:33:04.755Z,17.60
2017-11-20T17:35:32.303Z,12.60
2017-11-20T17:38:00.593Z,10.70
2017-11-20T17:40:28.117Z,6.90
2017-11-20T17:42:55.647Z,6.47
2017-11-20T17:45:23.197Z,6.90
2017-11-20T17:47:50.735Z,11.20
2017-11-20T17:50:18.251Z,7.40
2017-11-20T17:52:45.794Z,7.83
2017-11-20T17:55:13.298Z,9.27
2017-11-20T17:57:41.578Z,8.40
2017-11-20T18:00:09.145Z,8.60
2017-11-20T18:02:36.662Z,8.07
2017-11-20T18:05:04.203Z,9.57
2017-11-20T18:07:31.739Z,7.37
2017-11-20T18:09:59.266Z,6.23
2017-11-20T18:12:26.836Z,9.20
2017-11-20T18:14:54.402Z,6.40
2017-11-20T18:17:21.927Z,7.00
2017-11-20T18:19:49.435Z,7.40
2017-11-20T18:22:16.989Z,10.33
2017-11-20T18:24:44.538Z,7.07
2017-11-20T18:27:12.823Z,7.17
2017-11-20T18:29:40.520Z,5.80
2017-11-20T18:32:08.061Z,6.60
2017-11-20T18:34:35.594Z,6.73
2017-11-20T18:37:03.909Z,7.63
2017-11-20T18:39:31.437Z,5.87
2017-11-20T18:41:58.951Z,6.10
2017-11-20T18:44:26.529Z,5.93
2017-11-20T18:46:54.067Z,6.90
2017-11-20T18:49:21.598Z,7.30
2017-11-20T18:51:49.162Z,6.70
2017-11-20T18:54:16.682Z,6.40
2017-11-20T18:56:44.989Z,6.43
2017-11-20T18:59:12.546Z,6.07
2017-11-20T19:01:51.878Z,7.90
2017-11-20T19:17:45.489Z,6.10
2017-11-20T19:20:13.006Z,6.57
2017-11-20T19:22:40.522Z,6.37
2017-11-20T19:25:08.057Z,8.10
2017-11-20T19:27:35.567Z,8.17
2017-11-20T19:30:03.113Z,7.97
2017-11-20T19:32:30.891Z,11.37
2017-11-20T19:34:58.535Z,7.70
2017-11-20T19:37:26.211Z,7.80
2017-11-20T19:39:54.002Z,8.13
2017-11-20T19:42:21.706Z,7.77
2017-11-20T19:44:49.455Z,10.27
2017-11-20T19:47:17.020Z,12.83
2017-11-20T19:49:44.746Z,11.40
2017-11-20T19:52:12.759Z,8.23
2017-11-20T19:54:40.690Z,10.03
2017-11-20T19:57:08.262Z,8.37
2017-11-20T19:59:36.081Z,9.90
2017-11-20T20:02:04.406Z,8.60
2017-11-20T20:04:31.931Z,7.77
2017-11-20T20:06:59.514Z,7.37
2017-11-20T20:09:27.042Z,8.50
2017-11-20T20:11:54.643Z,8.67
2017-11-20T20:14:30.156Z,9.47
2017-11-20T20:17:05.720Z,8.27
2017-11-20T20:19:33.529Z,9.20
2017-11-20T20:22:01.293Z,7.67
2017-11-20T20:24:29.025Z,7.90
2017-11-20T20:26:56.844Z,8.77
2017-11-20T20:29:24.559Z,8.80
2017-11-20T20:31:52.283Z,8.80
2017-11-20T20:34:19.896Z,8.40
2017-11-20T20:36:47.462Z,10.77
2017-11-20T20:39:15.329Z,9.27
2017-11-20T20:41:42.944Z,9.27
2017-11-20T20:44:10.485Z,9.30
2017-11-20T20:46:38.063Z,12.23
2017-11-20T20:49:05.579Z,11.20
2017-11-20T20:51:33.344Z,10.03
2017-11-20T20:54:00.960Z,8.87
2017-11-20T20:56:29.536Z,10.60
2017-11-20T20:58:57.116Z,10.00
2017-11-20T21:01:24.641Z,10.13
2017-11-20T21:03:54.355Z,11.43
2017-11-20T21:06:21.971Z,10.00
2017-11-20T21:08:49.486Z,9.77
2017-11-20T21:24:40.357Z,10.20
2017-11-20T21:27:07.886Z,10.53
2017-11-20T21:29:35.410Z,11.50
2017-11-20T21:32:02.984Z,11.43
2017-11-20T21:34:31.267Z,10.70
2017-11-20T21:36:59.557Z,10.23
2017-11-20T21:39:27.098Z,10.17
2017-11-20T21:41:55.385Z,9.70
2017-11-20T21:44:22.899Z,10.27
2017-11-20T21:46:51.214Z,8.57
2017-11-20T21:49:19.490Z,10.90
2017-11-20T21:51:47.771Z,9.27
2017-11-20T21:54:16.075Z,10.20
2017-11-20T21:56:43.598Z,8.90
2017-11-20T21:59:11.115Z,10.73
2017-11-20T22:01:38.679Z,12.07
2017-11-20T22:04:06.186Z,9.57
2017-11-20T22:06:34.496Z,9.33
2017-11-20T22:09:02.047Z,9.10
2017-11-20T22:11:29.559Z,9.47
2017-11-20T22:13:57.072Z,9.07
2017-11-20T22:16:24.609Z,9.47
2017-11-20T22:18:52.158Z,9.87
2017-11-20T22:21:19.669Z,7.90
2017-11-20T22:23:47.192Z,9.10
2017-11-20T22:26:14.737Z,8.50
2017-11-20T22:28:43.036Z,10.00
2017-11-20T22:31:10.553Z,8.57
2017-11-20T22:33:38.127Z,9.53
2017-11-20T22:36:06.453Z,10.70
2017-11-20T22:38:33.970Z,8.67
2017-11-20T22:41:02.293Z,8.90
2017-11-20T22:43:29.818Z,7.10
2017-11-20T22:45:58.094Z,8.77
2017-11-20T22:48:26.413Z,8.10
2017-11-20T22:50:53.933Z,8.90
2017-11-20T22:53:22.220Z,7.47
2017-11-20T22:55:49.760Z,7.27
2017-11-20T22:58:18.046Z,6.90
2017-11-20T23:00:46.327Z,7.53
2017-11-20T23:03:13.871Z,7.17
2017-11-20T23:05:42.163Z,7.80
2017-11-20T23:08:09.703Z,7.93
2017-11-20T23:10:37.248Z,6.80
2017-11-20T23:13:04.754Z,7.23
2017-11-20T23:15:32.270Z,7.27
2017-11-20T23:17:59.801Z,6.20
2017-11-20T23:20:27.315Z,7.90
2017-11-20T23:22:54.842Z,6.40
2017-11-20T23:25:22.382Z,5.93
2017-11-20T23:27:49.902Z,5.97
2017-11-20T23:30:17.453Z,6.27
2017-11-20T23:32:45.722Z,6.17
2017-11-20T23:35:13.993Z,5.40
2017-11-20T23:37:42.294Z,6.40
2017-11-20T23:40:09.817Z,4.63
2017-11-20T23:42:37.330Z,5.63
2017-11-20T23:45:05.703Z,5.83
2017-11-20T23:47:33.222Z,5.40
2017-11-20T23:50:00.728Z,5.40
2017-11-20T23:52:28.281Z,5.10
2017-11-20T23:54:55.798Z,4.90
2017-11-20T23:57:23.341Z,6.00
2017-11-20T23:59:50.845Z,5.10
